Time;durP1;ratioP1;P1;durP2;ratioP2;P2;SDS_P1;SDS_P2;PMS_P1;PMS_P2;Temp;Humidity;BMP_temperature;BMP_pressure;BME280_temperature;BME280_humidity;BME280_pressure;Samples;Min_cycle;Max_cycle;Signal;HPM_P1;HPM_P2
2022/08/14 00:00:38;;;;;;;;;;;;;;;24.74;51.83;101327.97;5068598;28;19946;-57
2022/08/14 00:03:03;;;;;;;;;;;;;;;24.74;51.92;101336.03;5066943;28;19916;-53
2022/08/14 00:05:28;;;;;;;;;;;;;;;24.72;52.01;101325.44;5056970;28;19975;-54
2022/08/14 00:07:54;;;;;;;;;;;;;;;24.72;51.98;101316.53;5060038;28;20375;-57
2022/08/14 00:10:20;;;;;;;;;;;;;;;24.71;52.15;101320.25;5057045;28;19925;-54
2022/08/14 00:12:47;;;;;;;;;;;;;;;24.70;52.05;101321.25;5062842;28;20375;-57
2022/08/14 00:15:15;;;;;;;;;;;;;;;24.69;51.97;101320.38;5064110;28;19917;-54
2022/08/14 00:17:41;;;;;;;;;;;;;;;24.68;51.93;101321.38;5074314;28;19963;-53
2022/08/14 00:20:07;;;;;;;;;;;;;;;24.66;51.99;101316.16;5063981;28;19975;-63
2022/08/14 00:22:33;;;;;;;;;;;;;;;24.66;52.08;101312.63;5059054;28;19943;-57
2022/08/14 00:24:58;;;;;;;;;;;;;;;24.67;51.94;101314.31;5057012;28;19960;-59
2022/08/14 00:27:24;;;;;;;;;;;;;;;24.66;51.88;101318.88;5060752;28;20350;-54
2022/08/14 00:29:49;;;;;;;;;;;;;;;24.67;51.85;101314.31;5059944;28;19980;-54
2022/08/14 00:32:14;;;;;;;;;;;;;;;24.66;51.75;101313.47;5059311;28;19963;-62
2022/08/14 00:34:40;;;;;;;;;;;;;;;24.68;51.74;101315.16;5059089;28;20476;-53
2022/08/14 00:37:05;;;;;;;;;;;;;;;24.63;51.98;101311.13;5059044;28;20302;-54
2022/08/14 00:39:31;;;;;;;;;;;;;;;24.63;51.95;101310.28;5056085;28;20380;-59
2022/08/14 00:41:56;;;;;;;;;;;;;;;24.63;51.91;101303.03;5058077;28;19916;-54
2022/08/14 00:44:21;;;;;;;;;;;;;;;24.62;51.74;101301.38;5061110;28;20084;-56
2022/08/14 00:46:48;;;;;;;;;;;;;;;24.64;51.92;101299.34;5067590;28;20012;-54
2022/08/14 00:49:14;;;;;;;;;;;;;;;24.63;51.80;101302.22;5060091;28;20376;-61
2022/08/14 00:51:40;;;;;;;;;;;;;;;24.63;51.78;101296.84;5057452;28;19952;-58
2022/08/14 00:54:06;;;;;;;;;;;;;;;24.59;51.71;101303.56;5065135;28;19951;-58
2022/08/14 00:56:32;;;;;;;;;;;;;;;24.57;51.81;101298.34;5059262;28;19939;-57
2022/08/14 00:58:58;;;;;;;;;;;;;;;24.55;51.80;101295.00;5057723;28;20307;-55
2022/08/14 01:01:24;;;;;;;;;;;;;;;24.55;51.83;101294.13;5059765;28;19935;-60
2022/08/14 01:03:51;;;;;;;;;;;;;;;24.54;51.93;101296.00;5057656;28;19917;-54
2022/08/14 01:06:16;;;;;;;;;;;;;;;24.55;52.04;101299.50;5057249;28;20390;-57
2022/08/14 01:08:43;;;;;;;;;;;;;;;24.54;51.94;101293.31;5056926;28;21029;-56
2022/08/14 01:11:09;;;;;;;;;;;;;;;24.54;51.87;101295.13;5060316;28;19916;-54
2022/08/14 01:13:37;;;;;;;;;;;;;;;24.52;51.91;101295.31;5060811;28;19929;-55
2022/08/14 01:16:06;;;;;;;;;;;;;;;24.51;51.77;101294.47;5057291;28;19927;-60
2022/08/14 01:21:16;;;;;;;;;;;;;;;24.48;51.88;101296.66;5064602;28;20328;-56
2022/08/14 01:23:46;;;;;;;;;;;;;;;24.46;51.87;101291.44;5058939;28;20639;-55
2022/08/14 01:26:11;;;;;;;;;;;;;;;24.45;51.95;101287.06;5059007;28;19939;-55
2022/08/14 01:28:37;;;;;;;;;;;;;;;24.45;52.07;101278.16;5063072;28;19916;-56
2022/08/14 01:31:07;;;;;;;;;;;;;;;24.43;51.96;101283.72;5062187;28;19936;-59
2022/08/14 01:33:33;;;;;;;;;;;;;;;24.43;51.87;101286.41;5060070;28;19931;-57
2022/08/14 01:36:02;;;;;;;;;;;;;;;24.43;51.90;101280.19;5058309;28;20746;-58
2022/08/14 01:38:33;;;;;;;;;;;;;;;24.42;51.78;101283.88;5060505;28;19931;-61
2022/08/14 01:41:03;;;;;;;;;;;;;;;24.41;51.86;101285.72;5059699;28;19986;-57
2022/08/14 01:43:37;;;;;;;;;;;;;;;24.40;52.12;101288.59;5057064;28;19927;-55
2022/08/14 01:46:03;;;;;;;;;;;;;;;24.38;51.90;101288.75;5057592;28;19973;-55
2022/08/14 01:48:32;;;;;;;;;;;;;;;24.37;52.05;101291.59;5064857;28;19966;-58
2022/08/14 01:51:00;;;;;;;;;;;;;;;24.38;51.91;101287.91;5068882;28;19960;-57
2022/08/14 01:53:25;;;;;;;;;;;;;;;24.37;52.06;101294.28;5063468;28;19925;-57
2022/08/14 01:55:56;;;;;;;;;;;;;;;24.36;52.07;101288.06;5059077;28;19924;-55
2022/08/14 01:58:22;;;;;;;;;;;;;;;24.35;52.20;101281.84;5068021;28;20019;-59
2022/08/14 02:00:53;;;;;;;;;;;;;;;24.35;52.05;101289.94;5055297;28;20445;-57
2022/08/14 02:03:18;;;;;;;;;;;;;;;24.34;52.17;101290.94;5063900;28;19916;-57
2022/08/14 02:05:44;;;;;;;;;;;;;;;24.31;52.10;101285.88;5061244;28;19932;-60
2022/08/14 02:08:09;;;;;;;;;;;;;;;24.29;52.18;101292.44;5061092;28;19920;-56
2022/08/14 02:10:34;;;;;;;;;;;;;;;24.26;52.20;101290.06;5056019;28;19936;-57
2022/08/14 02:13:06;;;;;;;;;;;;;;;24.24;52.33;101287.56;5052121;28;19977;-57
2022/08/14 02:15:33;;;;;;;;;;;;;;;24.22;52.23;101286.88;5059467;28;20007;-54
2022/08/14 02:18:00;;;;;;;;;;;;;;;24.20;52.33;101288.88;5058913;28;19948;-55
2022/08/14 02:20:32;;;;;;;;;;;;;;;24.18;52.47;101289.06;5060495;28;20348;-60
2022/08/14 02:22:57;;;;;;;;;;;;;;;24.17;52.59;101290.06;5054186;28;19917;-55
2022/08/14 02:25:23;;;;;;;;;;;;;;;24.14;52.69;101276.09;5057890;28;19931;-57
2022/08/14 02:27:48;;;;;;;;;;;;;;;24.09;52.65;101279.28;5055063;28;19951;-59
2022/08/14 02:30:14;;;;;;;;;;;;;;;24.06;52.82;101279.63;5053326;28;19928;-60
2022/08/14 02:32:39;;;;;;;;;;;;;;;24.02;52.80;101279.09;5063686;28;20318;-56
2022/08/14 02:35:17;;;;;;;;;;;;;;;23.98;53.01;101277.75;5062646;28;19952;-59
2022/08/14 02:37:42;;;;;;;;;;;;;;;23.96;52.87;101281.59;5070351;28;19935;-54
2022/08/14 02:40:08;;;;;;;;;;;;;;;23.93;52.80;101285.44;5058127;28;20327;-57
2022/08/14 02:42:33;;;;;;;;;;;;;;;23.90;53.06;101275.84;5061264;28;20027;-60
2022/08/14 02:44:58;;;;;;;;;;;;;;;23.87;52.99;101289.63;5056487;28;19917;-54
2022/08/14 02:47:25;;;;;;;;;;;;;;;23.84;52.98;101289.09;5060600;28;19971;-57
2022/08/14 02:49:50;;;;;;;;;;;;;;;23.81;53.03;101284.91;5063771;28;20454;-54
2022/08/14 02:52:16;;;;;;;;;;;;;;;23.79;53.25;101286.06;5058678;28;20011;-56
2022/08/14 02:54:41;;;;;;;;;;;;;;;23.77;52.89;101285.41;5064911;28;19924;-54
2022/08/14 02:57:06;;;;;;;;;;;;;;;23.73;53.03;101277.66;5058127;28;19928;-58
2022/08/14 02:59:32;;;;;;;;;;;;;;;23.70;52.95;101275.28;5050773;28;19931;-58
2022/08/14 03:01:58;;;;;;;;;;;;;;;23.70;53.26;101263.72;5063072;28;20075;-57
2022/08/14 03:04:25;;;;;;;;;;;;;;;23.70;53.16;101274.47;5059796;28;20002;-59
2022/08/14 03:06:50;;;;;;;;;;;;;;;23.70;53.12;101266.41;5052812;28;19921;-59
2022/08/14 03:09:16;;;;;;;;;;;;;;;23.68;53.14;101269.22;5058749;28;19932;-57
2022/08/14 03:11:43;;;;;;;;;;;;;;;23.67;53.11;101267.53;5055009;28;20019;-61
2022/08/14 03:14:10;;;;;;;;;;;;;;;23.63;53.16;101260.84;5062132;28;20282;-57
2022/08/14 03:16:37;;;;;;;;;;;;;;;23.60;53.19;101261.16;5064280;28;19916;-54
2022/08/14 03:19:04;;;;;;;;;;;;;;;23.56;53.31;101262.47;5066260;28;19913;-55
2022/08/14 03:21:30;;;;;;;;;;;;;;;23.52;53.28;101261.97;5055589;28;19923;-54
2022/08/14 03:24:14;;;;;;;;;;;;;;;23.49;53.38;101258.75;5053001;28;19920;-53
2022/08/14 03:26:44;;;;;;;;;;;;;;;23.44;53.60;101254.72;5058769;28;20379;-53
2022/08/14 03:29:11;;;;;;;;;;;;;;;23.43;53.44;101262.94;5066381;28;19959;-54
2022/08/14 03:31:39;;;;;;;;;;;;;;;23.39;53.75;101262.41;5060555;28;20399;-56
2022/08/14 03:34:04;;;;;;;;;;;;;;;23.35;53.67;101260.19;5068883;28;19921;-54
2022/08/14 03:36:33;;;;;;;;;;;;;;;23.30;53.83;101263.38;5077791;28;19919;-57
2022/08/14 03:38:58;;;;;;;;;;;;;;;23.24;54.09;101264.84;5066186;28;19929;-54
2022/08/14 03:41:25;;;;;;;;;;;;;;;23.19;54.21;101258.25;5064339;28;19921;-55
2022/08/14 03:43:54;;;;;;;;;;;;;;;23.19;54.21;101263.63;5075296;28;19970;-57
2022/08/14 03:46:20;;;;;;;;;;;;;;;23.16;54.17;101261.25;5058853;28;19924;-58
2022/08/14 03:48:46;;;;;;;;;;;;;;;23.14;54.20;101254.19;5066892;28;19924;-57
2022/08/14 03:51:12;;;;;;;;;;;;;;;23.12;54.21;101248.13;5060545;28;19924;-56
2022/08/14 03:53:41;;;;;;;;;;;;;;;23.09;54.25;101256.50;5062725;28;19924;-57
2022/08/14 03:56:11;;;;;;;;;;;;;;;23.06;54.44;101254.16;5068393;28;19971;-56
2022/08/14 03:58:48;;;;;;;;;;;;;;;23.04;54.36;101260.66;5058778;28;20419;-54
2022/08/14 04:01:20;;;;;;;;;;;;;;;23.01;54.43;101253.78;5060880;28;20286;-59
2022/08/14 04:03:46;;;;;;;;;;;;;;;23.00;54.33;101257.47;5063832;28;21633;-55
2022/08/14 04:06:11;;;;;;;;;;;;;;;22.98;54.48;101254.97;5059396;28;20011;-53
2022/08/14 04:08:37;;;;;;;;;;;;;;;22.97;54.43;101253.28;5059308;28;20050;-54
2022/08/14 04:11:04;;;;;;;;;;;;;;;22.97;54.50;101249.72;5061460;28;19954;-56
2022/08/14 04:13:30;;;;;;;;;;;;;;;22.94;54.43;101241.97;5059535;28;20379;-53
2022/08/14 04:15:56;;;;;;;;;;;;;;;22.94;54.52;101248.22;5055779;28;20234;-54
2022/08/14 04:18:21;;;;;;;;;;;;;;;22.97;54.29;101255.09;5060228;28;20682;-54
2022/08/14 04:20:47;;;;;;;;;;;;;;;22.96;54.16;101251.59;5058229;28;19917;-53
2022/08/14 04:23:12;;;;;;;;;;;;;;;22.97;54.33;101255.09;5088178;22;19972;-61
2022/08/14 04:25:38;;;;;;;;;;;;;;;22.98;54.25;101259.47;5063945;28;19925;-57
2022/08/14 04:28:05;;;;;;;;;;;;;;;22.99;54.23;101250.41;5063189;28;19955;-55
2022/08/14 04:30:31;;;;;;;;;;;;;;;23.01;54.24;101248.41;5060779;28;19931;-55
2022/08/14 04:32:56;;;;;;;;;;;;;;;23.03;54.07;101245.56;5054210;28;19928;-58
2022/08/14 04:35:22;;;;;;;;;;;;;;;23.04;54.08;101242.75;5058985;28;19921;-58
2022/08/14 04:45:59;;;;;;;;;;;;;;;23.05;54.17;101241.75;5058519;28;19927;-59
2022/08/14 04:48:26;;;;;;;;;;;;;;;23.05;53.92;101241.75;5065396;28;19959;-62
2022/08/14 04:50:51;;;;;;;;;;;;;;;23.07;54.15;101236.19;5069339;28;19932;-60
2022/08/14 04:53:18;;;;;;;;;;;;;;;23.09;54.03;101237.72;5061566;28;20436;-56
2022/08/14 04:55:48;;;;;;;;;;;;;;;23.11;53.82;101227.66;5057198;28;20383;-60
2022/08/14 04:58:17;;;;;;;;;;;;;;;23.13;54.08;101231.03;5060723;28;19924;-64
2022/08/14 05:00:50;;;;;;;;;;;;;;;23.18;53.77;101230.56;5054802;28;20283;-55
2022/08/14 05:03:22;;;;;;;;;;;;;;;23.22;53.96;101228.41;5054671;28;19920;-58
2022/08/14 05:05:48;;;;;;;;;;;;;;;23.28;53.99;101227.78;5060086;28;19951;-54
2022/08/14 05:08:14;;;;;;;;;;;;;;;23.31;53.84;101226.63;5061258;28;19923;-60
2022/08/14 05:10:41;;;;;;;;;;;;;;;23.34;53.67;101220.94;5067608;28;19925;-60
2022/08/14 05:13:07;;;;;;;;;;;;;;;23.37;53.76;101226.81;5053420;28;19928;-66
2022/08/14 05:15:37;;;;;;;;;;;;;;;23.42;53.54;101231.72;5060036;28;19973;-59
2022/08/14 05:18:23;;;;;;;;;;;;;;;23.44;53.36;101233.22;5062263;28;19976;-63
2022/08/14 05:20:50;;;;;;;;;;;;;;;23.47;53.59;101228.53;5068266;28;19917;-57
2022/08/14 05:23:17;;;;;;;;;;;;;;;23.48;53.63;101230.22;5063682;28;19916;-57
2022/08/14 05:25:42;;;;;;;;;;;;;;;23.51;53.56;101227.22;5060943;28;19947;-58
2022/08/14 05:28:18;;;;;;;;;;;;;;;23.53;53.68;101223.34;5059000;28;20402;-55
2022/08/14 05:30:52;;;;;;;;;;;;;;;23.54;53.66;101216.13;5051522;28;20060;-56
2022/08/14 05:33:19;;;;;;;;;;;;;;;23.57;53.71;101223.88;5062457;28;19928;-61
2022/08/14 05:35:46;;;;;;;;;;;;;;;23.60;53.42;101216.31;5062607;28;20383;-61
2022/08/14 05:38:12;;;;;;;;;;;;;;;23.63;53.54;101214.31;5060893;28;19973;-58
2022/08/14 05:40:42;;;;;;;;;;;;;;;23.65;53.73;101213.16;5058322;28;19971;-55
2022/08/14 05:43:07;;;;;;;;;;;;;;;23.67;53.49;101216.50;5045069;28;19921;-59
2022/08/14 05:45:34;;;;;;;;;;;;;;;23.71;53.41;101211.66;5054134;28;19917;-57
2022/08/14 05:48:00;;;;;;;;;;;;;;;23.74;53.40;101212.16;5063885;28;19968;-59
2022/08/14 05:50:25;;;;;;;;;;;;;;;23.79;53.56;101211.66;5060472;28;20058;-60
2022/08/14 05:52:50;;;;;;;;;;;;;;;23.84;53.43;101213.84;5062444;28;19928;-61
2022/08/14 05:55:16;;;;;;;;;;;;;;;23.86;53.46;101212.72;5066959;28;19955;-59
2022/08/14 05:57:48;;;;;;;;;;;;;;;23.91;53.40;101212.22;5062222;28;20303;-62
2022/08/14 06:00:15;;;;;;;;;;;;;;;23.95;53.23;101202.81;5057339;28;20466;-58
2022/08/14 06:02:41;;;;;;;;;;;;;;;23.98;53.22;101207.03;5060919;28;19924;-61
2022/08/14 06:05:06;;;;;;;;;;;;;;;24.01;53.17;101196.78;5055124;28;21733;-60
2022/08/14 06:07:34;;;;;;;;;;;;;;;24.03;53.26;101202.84;5056369;28;19986;-59
2022/08/14 06:09:59;;;;;;;;;;;;;;;24.07;53.11;101197.16;5057949;28;19920;-64
2022/08/14 06:12:25;;;;;;;;;;;;;;;24.09;53.12;101195.13;5047700;28;19986;-60
2022/08/14 06:14:50;;;;;;;;;;;;;;;24.11;53.21;101193.94;5054005;28;19928;-58
2022/08/14 06:17:15;;;;;;;;;;;;;;;24.15;52.82;101191.75;5060952;28;19924;-60
2022/08/14 06:19:41;;;;;;;;;;;;;;;24.19;53.06;101195.81;5056412;28;20379;-58
2022/08/14 06:22:06;;;;;;;;;;;;;;;24.20;52.72;101190.25;5054800;28;19928;-63
2022/08/14 06:24:31;;;;;;;;;;;;;;;24.23;52.90;101193.59;5057029;28;19929;-63
2022/08/14 06:26:56;;;;;;;;;;;;;;;24.25;52.98;101191.59;5052058;28;20053;-60
2022/08/14 06:29:22;;;;;;;;;;;;;;;24.28;52.80;101192.09;5057491;28;19964;-63
2022/08/14 06:31:47;;;;;;;;;;;;;;;24.30;52.75;101189.25;5052776;28;19920;-60
2022/08/14 06:34:13;;;;;;;;;;;;;;;24.31;52.78;101191.75;5059689;28;19927;-58
2022/08/14 06:36:39;;;;;;;;;;;;;;;24.33;52.68;101192.44;5057713;28;19920;-64
2022/08/14 06:39:04;;;;;;;;;;;;;;;24.37;52.74;101200.19;5061106;28;19936;-63
2022/08/14 06:41:29;;;;;;;;;;;;;;;24.39;52.61;101196.28;5058060;28;19921;-61
2022/08/14 06:43:54;;;;;;;;;;;;;;;24.41;52.53;101196.16;5055013;28;19925;-63
2022/08/14 06:46:20;;;;;;;;;;;;;;;24.42;52.56;101193.28;5060154;28;19920;-57
2022/08/14 06:48:47;;;;;;;;;;;;;;;24.43;52.31;101191.44;5056668;28;19962;-57
2022/08/14 06:51:12;;;;;;;;;;;;;;;24.45;52.55;101186.72;5069623;28;19923;-59
2022/08/14 06:53:38;;;;;;;;;;;;;;;24.49;52.43;101180.00;5056608;28;19928;-60
2022/08/14 06:56:03;;;;;;;;;;;;;;;24.50;52.59;101178.97;5054272;28;19920;-56
2022/08/14 06:58:29;;;;;;;;;;;;;;;24.49;52.57;101175.47;5062491;28;20294;-57
2022/08/14 07:06:23;;;;;;;;;;;;;;;24.56;52.44;101169.38;5050537;28;19951;-55
2022/08/14 07:08:49;;;;;;;;;;;;;;;24.58;52.35;101167.38;5052257;28;20020;-54
2022/08/14 07:11:14;;;;;;;;;;;;;;;24.59;52.21;101169.88;5054756;28;19947;-53
2022/08/14 07:13:40;;;;;;;;;;;;;;;24.58;52.42;101176.25;5059296;28;19932;-53
2022/08/14 07:16:06;;;;;;;;;;;;;;;24.58;52.40;101176.25;5053995;28;20273;-52
2022/08/14 07:18:32;;;;;;;;;;;;;;;24.59;52.44;101167.19;5048102;28;19952;-52
2022/08/14 07:21:00;;;;;;;;;;;;;;;24.61;52.39;101175.94;5055549;28;19916;-55
2022/08/14 07:23:26;;;;;;;;;;;;;;;24.64;52.40;101180.97;5058387;28;19927;-54
2022/08/14 07:25:55;;;;;;;;;;;;;;;24.68;52.34;101180.63;5061233;28;19921;-54
2022/08/14 07:28:22;;;;;;;;;;;;;;;24.70;52.25;101181.34;5054532;28;20024;-57
2022/08/14 07:30:48;;;;;;;;;;;;;;;24.74;52.32;101174.59;5055678;28;19959;-52
2022/08/14 07:33:13;;;;;;;;;;;;;;;24.79;52.13;101177.59;5054830;28;19956;-54
2022/08/14 07:35:39;;;;;;;;;;;;;;;24.81;52.36;101171.03;5057493;28;19924;-54
2022/08/14 07:38:05;;;;;;;;;;;;;;;24.87;52.13;101174.91;5054842;28;19916;-53
2022/08/14 07:40:30;;;;;;;;;;;;;;;24.91;52.10;101170.00;5056894;28;19916;-53
2022/08/14 07:42:56;;;;;;;;;;;;;;;24.95;52.10;101157.91;5056905;28;19920;-52
2022/08/14 07:45:21;;;;;;;;;;;;;;;24.97;52.08;101158.53;5052946;28;20411;-54
2022/08/14 07:47:46;;;;;;;;;;;;;;;24.99;52.03;101156.53;5057344;28;19917;-55
2022/08/14 07:50:16;;;;;;;;;;;;;;;25.00;52.10;101152.00;5065909;28;20007;-52
2022/08/14 07:52:45;;;;;;;;;;;;;;;25.02;52.12;101155.34;5062386;28;19924;-55
2022/08/14 07:55:11;;;;;;;;;;;;;;;25.05;51.91;101149.59;5063381;28;20704;-53
2022/08/14 07:57:41;;;;;;;;;;;;;;;25.07;51.89;101147.56;5073206;28;20413;-53
2022/08/14 08:00:11;;;;;;;;;;;;;;;25.08;51.93;101141.16;5059479;28;20413;-52
2022/08/14 08:02:38;;;;;;;;;;;;;;;25.08;51.72;101138.47;5053747;28;19917;-52
2022/08/14 08:05:04;;;;;;;;;;;;;;;25.10;51.72;101141.84;5061482;28;20261;-53
2022/08/14 08:07:30;;;;;;;;;;;;;;;25.13;51.75;101146.88;5060875;28;19969;-53
2022/08/14 08:09:57;;;;;;;;;;;;;;;25.17;52.15;101141.97;5058687;28;19929;-53
2022/08/14 08:12:23;;;;;;;;;;;;;;;25.17;52.47;101136.59;5057651;28;19933;-52
2022/08/14 08:14:50;;;;;;;;;;;;;;;25.17;52.21;101137.44;5049114;28;19935;-54
2022/08/14 08:17:16;;;;;;;;;;;;;;;25.22;52.28;101135.03;5059348;28;19917;-55
2022/08/14 08:19:41;;;;;;;;;;;;;;;25.26;52.34;101139.06;5053893;28;19921;-54
2022/08/14 08:22:07;;;;;;;;;;;;;;;25.31;52.27;101129.63;5060430;28;20223;-63
2022/08/14 08:24:33;;;;;;;;;;;;;;;25.35;51.89;101136.31;5062252;28;19968;-55
2022/08/14 08:26:59;;;;;;;;;;;;;;;25.39;51.78;101133.13;5058413;28;19928;-55
2022/08/14 08:29:24;;;;;;;;;;;;;;;25.44;51.61;101126.38;5057617;28;19927;-55
2022/08/14 08:31:51;;;;;;;;;;;;;;;25.48;51.58;101133.09;5057389;28;20341;-57
2022/08/14 08:34:16;;;;;;;;;;;;;;;25.51;51.70;101127.34;5057207;28;19925;-56
2022/08/14 08:36:42;;;;;;;;;;;;;;;25.55;51.35;101128.69;5070745;28;19924;-53
2022/08/14 08:39:08;;;;;;;;;;;;;;;25.60;51.15;101130.84;5058735;28;19916;-54
2022/08/14 08:41:42;;;;;;;;;;;;;;;25.63;51.10;101125.91;5058102;28;19924;-53
2022/08/14 08:44:08;;;;;;;;;;;;;;;25.68;51.09;101128.06;5054994;28;21231;-53
2022/08/14 08:46:33;;;;;;;;;;;;;;;25.72;50.89;101113.22;5063759;28;19956;-52
2022/08/14 08:48:58;;;;;;;;;;;;;;;25.76;50.88;101114.56;5062713;28;20011;-51
2022/08/14 08:51:25;;;;;;;;;;;;;;;25.80;50.83;101115.84;5062154;28;20431;-54
2022/08/14 08:53:58;;;;;;;;;;;;;;;25.84;50.39;101105.56;5065367;28;19947;-53
2022/08/14 08:56:40;;;;;;;;;;;;;;;25.86;50.51;101112.44;5050884;28;19925;-50
2022/08/14 08:59:20;;;;;;;;;;;;;;;25.91;50.39;101111.06;5057490;28;20422;-51
2022/08/14 09:01:54;;;;;;;;;;;;;;;25.95;50.38;101115.06;5047669;28;19925;-53
2022/08/14 09:04:20;;;;;;;;;;;;;;;25.97;50.07;101111.19;5045946;28;19955;-52
2022/08/14 09:06:46;;;;;;;;;;;;;;;26.02;50.15;101099.84;5030448;28;19928;-52
2022/08/14 09:09:22;;;;;;;;;;;;;;;26.05;49.90;101091.41;5057047;28;19920;-51
2022/08/14 09:11:47;;;;;;;;;;;;;;;26.10;49.64;101099.75;5051105;28;20387;-51
2022/08/14 09:14:13;;;;;;;;;;;;;;;26.14;49.48;101089.50;5056249;28;19970;-51
2022/08/14 09:16:38;;;;;;;;;;;;;;;26.17;49.54;101092.66;5042440;28;20045;-52
2022/08/14 09:19:04;;;;;;;;;;;;;;;26.19;49.49;101100.53;5059409;28;19924;-51
2022/08/14 09:21:29;;;;;;;;;;;;;;;26.23;49.53;101095.66;5054252;28;19924;-51
2022/08/14 09:23:55;;;;;;;;;;;;;;;26.24;49.40;101100.84;5053685;28;19978;-49
2022/08/14 09:26:20;;;;;;;;;;;;;;;26.28;49.42;101094.06;5054086;28;20023;-53
2022/08/14 09:28:45;;;;;;;;;;;;;;;26.32;49.26;101099.94;5045258;28;20019;-51
2022/08/14 09:31:12;;;;;;;;;;;;;;;26.34;49.21;101092.50;5038630;28;19924;-53
2022/08/14 09:33:56;;;;;;;;;;;;;;;26.38;49.29;101091.09;5041279;28;19928;-52
2022/08/14 09:36:39;;;;;;;;;;;;;;;26.41;49.18;101085.31;5044683;28;19924;-53
2022/08/14 09:39:08;;;;;;;;;;;;;;;26.45;48.81;101086.63;5045450;28;20425;-52
2022/08/14 09:41:40;;;;;;;;;;;;;;;26.51;48.79;101079.66;5046619;28;19935;-53
2022/08/14 09:44:24;;;;;;;;;;;;;;;26.57;48.45;101072.66;5056319;28;19928;-52
2022/08/14 09:46:53;;;;;;;;;;;;;;;26.62;48.45;101070.25;5056330;28;19925;-52
2022/08/14 09:49:28;;;;;;;;;;;;;;;26.65;48.42;101069.88;5055519;28;20030;-52
2022/08/14 09:52:01;;;;;;;;;;;;;;;26.67;48.27;101061.59;5055143;28;19925;-53
2022/08/14 09:54:34;;;;;;;;;;;;;;;26.70;48.04;101064.75;5055421;28;19924;-53
2022/08/14 09:57:03;;;;;;;;;;;;;;;26.74;47.70;101066.06;5055573;28;19921;-52
2022/08/14 09:59:38;;;;;;;;;;;;;;;26.76;47.52;101053.22;5057085;28;19928;-52
2022/08/14 10:02:05;;;;;;;;;;;;;;;26.78;47.68;101051.16;5053674;28;20418;-53
2022/08/14 10:04:31;;;;;;;;;;;;;;;26.83;47.68;101044.41;5057897;28;19920;-53
2022/08/14 10:06:57;;;;;;;;;;;;;;;26.88;47.50;101047.34;5043293;28;21106;-52
2022/08/14 10:09:22;;;;;;;;;;;;;;;26.94;47.36;101052.00;5046605;28;20984;-53
2022/08/14 10:11:55;;;;;;;;;;;;;;;26.98;46.97;101047.91;5046993;28;19956;-53
2022/08/14 10:14:25;;;;;;;;;;;;;;;27.03;46.83;101040.03;5044903;28;19925;-52
2022/08/14 10:16:55;;;;;;;;;;;;;;;27.08;46.60;101040.31;5040397;28;19920;-53
2022/08/14 10:19:26;;;;;;;;;;;;;;;27.13;46.34;101022.72;5045216;28;19928;-52
2022/08/14 10:22:09;;;;;;;;;;;;;;;27.17;46.10;101019.44;5045373;28;20384;-53
2022/08/14 10:24:41;;;;;;;;;;;;;;;27.21;46.10;101018.03;5052330;28;19921;-52
2022/08/14 10:27:17;;;;;;;;;;;;;;;27.27;46.17;101021.81;5045806;28;19920;-53
2022/08/14 10:29:46;;;;;;;;;;;;;;;27.32;45.95;101011.25;5046606;28;19928;-52
2022/08/14 10:32:13;;;;;;;;;;;;;;;27.35;45.56;101010.06;5040853;28;19929;-52
2022/08/14 10:34:39;;;;;;;;;;;;;;;27.39;45.46;101006.75;5046340;28;19938;-53
2022/08/14 10:37:06;;;;;;;;;;;;;;;27.43;45.27;101006.38;5042157;28;20863;-52
2022/08/14 10:39:31;;;;;;;;;;;;;;;27.45;45.39;100988.97;5046573;28;19921;-53
2022/08/14 10:42:10;;;;;;;;;;;;;;;27.47;45.04;100984.22;5043549;28;20264;-53
2022/08/14 10:44:46;;;;;;;;;;;;;;;27.52;44.93;100989.03;5042565;28;20000;-53
2022/08/14 10:47:18;;;;;;;;;;;;;;;27.57;44.64;100975.78;5049419;28;20422;-52
2022/08/14 10:49:57;;;;;;;;;;;;;;;27.62;44.01;100973.28;5049553;28;20526;-52
2022/08/14 10:52:24;;;;;;;;;;;;;;;27.68;44.06;100975.22;5041654;28;19928;-53
2022/08/14 10:54:50;;;;;;;;;;;;;;;27.74;43.40;100980.88;5053697;28;19924;-52
2022/08/14 10:57:23;;;;;;;;;;;;;;;27.78;42.98;100984.84;5053107;28;19969;-53
2022/08/14 11:00:07;;;;;;;;;;;;;;;27.81;43.10;100970.94;5033737;28;19925;-53
2022/08/14 11:02:35;;;;;;;;;;;;;;;27.85;42.59;100972.22;5048739;28;19963;-52
2022/08/14 11:05:00;;;;;;;;;;;;;;;27.88;42.53;100961.00;5046868;28;20641;-52
2022/08/14 11:07:26;;;;;;;;;;;;;;;27.96;42.23;100966.25;5046950;28;19931;-52
2022/08/14 11:09:56;;;;;;;;;;;;;;;28.03;42.12;100965.47;5049862;28;19928;-52
2022/08/14 11:12:22;;;;;;;;;;;;;;;28.07;41.91;100959.47;5061820;28;19920;-53
2022/08/14 11:14:51;;;;;;;;;;;;;;;28.11;42.35;100954.50;5042877;28;19928;-53
2022/08/14 11:17:16;;;;;;;;;;;;;;;28.15;42.30;100961.19;5035982;28;19978;-53
2022/08/14 11:19:42;;;;;;;;;;;;;;;28.19;42.16;100946.25;5042720;28;19937;-52
2022/08/14 11:22:07;;;;;;;;;;;;;;;28.27;42.45;100946.06;5043749;28;20038;-52
2022/08/14 11:24:35;;;;;;;;;;;;;;;28.33;42.16;100940.88;5045264;28;19991;-53
2022/08/14 11:27:01;;;;;;;;;;;;;;;28.38;42.12;100935.69;5022656;28;19924;-53
2022/08/14 11:29:27;;;;;;;;;;;;;;;28.41;41.55;100940.69;5047664;28;20013;-53
2022/08/14 11:31:54;;;;;;;;;;;;;;;28.44;41.23;100934.88;5014336;28;19933;-52
2022/08/14 11:34:19;;;;;;;;;;;;;;;28.50;41.07;100935.94;5045002;28;19935;-53
2022/08/14 11:36:45;;;;;;;;;;;;;;;28.52;41.05;100929.28;5048149;28;19921;-52
2022/08/14 11:39:17;;;;;;;;;;;;;;;28.56;41.25;100927.84;5050445;28;20832;-53
2022/08/14 11:41:45;;;;;;;;;;;;;;;28.62;41.05;100933.50;5041409;28;19924;-53
2022/08/14 11:44:10;;;;;;;;;;;;;;;28.66;40.45;100922.03;5044503;28;20430;-53
2022/08/14 11:46:35;;;;;;;;;;;;;;;28.71;40.66;100924.13;5045352;28;20038;-52
2022/08/14 11:49:01;;;;;;;;;;;;;;;28.74;40.62;100921.03;5044975;28;19925;-53
2022/08/14 11:51:28;;;;;;;;;;;;;;;28.79;40.45;100918.56;5046710;28;20395;-52
2022/08/14 11:53:54;;;;;;;;;;;;;;;28.84;40.43;100913.34;5056139;28;19936;-53
2022/08/14 11:56:20;;;;;;;;;;;;;;;28.89;39.97;100912.75;5034488;28;21573;-54
2022/08/14 11:58:51;;;;;;;;;;;;;;;28.90;40.00;100904.41;5044227;28;20415;-54
2022/08/14 12:01:25;;;;;;;;;;;;;;;28.95;39.94;100908.38;5042144;28;19917;-53
2022/08/14 12:03:51;;;;;;;;;;;;;;;28.99;39.64;100901.50;5046469;28;19925;-52
2022/08/14 12:06:18;;;;;;;;;;;;;;;29.04;39.91;100899.00;5050986;28;19931;-53
2022/08/14 12:08:45;;;;;;;;;;;;;;;29.07;39.78;100904.00;5048269;28;19916;-53
2022/08/14 12:11:13;;;;;;;;;;;;;;;29.10;39.27;100892.78;5049125;28;19920;-53
2022/08/14 12:13:40;;;;;;;;;;;;;;;29.15;38.95;100895.66;5055398;28;19933;-52
2022/08/14 12:16:07;;;;;;;;;;;;;;;29.19;38.83;100886.09;5050180;28;19925;-53
2022/08/14 12:18:33;;;;;;;;;;;;;;;29.23;39.14;100891.09;5051903;28;19924;-53
2022/08/14 12:21:09;;;;;;;;;;;;;;;29.26;38.76;100886.06;5052612;28;19920;-54
2022/08/14 12:23:34;;;;;;;;;;;;;;;29.34;38.46;100885.88;5047795;28;19920;-53
2022/08/14 12:26:04;;;;;;;;;;;;;;;29.38;38.32;100880.03;5042576;28;19929;-52
2022/08/14 12:28:29;;;;;;;;;;;;;;;29.40;38.43;100877.97;5048402;28;19937;-53
2022/08/14 12:30:57;;;;;;;;;;;;;;;29.43;38.26;100866.72;5035802;28;19947;-54
2022/08/14 12:33:26;;;;;;;;;;;;;;;29.50;38.14;100864.81;5043565;28;22404;-53
2022/08/14 12:35:56;;;;;;;;;;;;;;;29.56;37.91;100863.97;5044113;28;20029;-53
2022/08/14 12:38:54;;;;;;;;;;;;;;;29.60;38.08;100859.78;5031954;28;19920;-52
2022/08/14 12:41:21;;;;;;;;;;;;;;;29.68;37.72;100860.59;5000250;28;19928;-52
2022/08/14 12:43:46;;;;;;;;;;;;;;;29.72;37.42;100854.56;5055813;28;20054;-52
2022/08/14 12:46:20;;;;;;;;;;;;;;;29.74;37.41;100838.88;5055997;28;20377;-52
2022/08/14 12:48:46;;;;;;;;;;;;;;;29.79;37.29;100835.56;5061319;28;20407;-52
2022/08/14 12:51:20;;;;;;;;;;;;;;;29.79;37.06;100841.78;5057921;28;19932;-52
2022/08/14 12:53:46;;;;;;;;;;;;;;;29.83;37.01;100842.19;5059864;28;19921;-53